Pagrindinis puslapis
METAR-TAF:

METAR-TAF

Oro uostai :

Rabato oro uostas

Rabatas, Marokas

platuma: 34-03N, ilguma: 006-46W, Aukštis: 84 m

Dabartinis oras

Ataskaita buvo paskelbta 25 minutes, ne 16:00 UTC
Vėjas 10 kt iš Šiaurės/Šiaurės Vakarų
Temperatūra 22°C
Drėgmė 69%
Slėgis 1014 hPa
Matomumas: 8000 m
Išsisklaidę debesys ne aukštis 2000 ft
Išsisklaidę debesys ne aukštis 8000 ft
Su prošvaistėmis ne aukštis 20000 ft

METAR: GMME 201600Z 33010KT 8000 SCT020 SCT080 BKN200 22/16 Q1014 NOSIG

Laikas: 17:25 (16:25 UTC)

Prognozė

Ataskaita buvo paskelbta 5 valandos ir 25 minutes, ne 11:00 UTC
Prognozė galioja nuo 20 metu 12 UTC su 21 metu 18 UTC
Vėjas 8 kt iš Šiaurės/Šiaurės Vakarų
Matomumas: 8000 m
Išsisklaidę debesys ne aukštis 2000 ft
Su prošvaistėmis ne aukštis 5700 ft
Laikinai
nuo 21 metu 04 UTC su 21 metu 10 UTC
Vėjas 2 kt nuo kintamojo kryptimis
Matomumas: 3000 m
Su prošvaistėmis ne aukštis 1000 ft
Su prošvaistėmis ne aukštis 1500 ft
rūkana

TAF: GMME 201100Z 2012/2118 34008KT 8000 SCT020 BKN057 TEMPO 2104/2110 VRB02KT 3000 BR BKN010 BKN015

Orai ataskaitas ir orų prognozės (METAR, TAF).

turimą stotys yra geltonos ir raudonos taškus žemėlapyje.

Perkelti pele per norėdami pamatyti stoties vardą.

Tada spustelėkite, norėdami matyti oro stebėjimo ir prognozės.

Norėdami pakeisti žemėlapį: spustelėkite ant žalios mygtukų su juodo kryžiaus žemyn,; žalią mygtuką su brūkšneliu, jei norite nutolinti; arba žalių rodyklių gretimoms žemėlapius.


METAR-TAF: